Time,TemperatureF,DewpointF,PressureIn,WindDirection,WindDirectionDegrees,WindSpeedMPH,WindSpeedGustMPH,Humidity,HourlyPrecipIn,Conditions,Clouds,dailyrainin,SoftwareType,DateUTC
2013-03-09 00:05:00,30.2,26.0,30.36,East,80,0.0,-999.0,83,-99.99,,,0.00,weatherlink.com 1.10,2013-03-09 05:05:00,
2013-03-09 00:20:00,28.5,24.0,30.36,East,80,1.0,-999.0,82,-99.99,,,0.00,weatherlink.com 1.10,2013-03-09 05:20:00,
2013-03-09 00:35:00,27.7,24.0,30.37,East,80,2.0,-999.0,87,-99.99,,,0.00,weatherlink.com 1.10,2013-03-09 05:35:00,
2013-03-09 00:50:00,27.3,24.0,30.38,East,80,2.0,-999.0,88,-99.99,,,0.00,weatherlink.com 1.10,2013-03-09 05:50:00,
2013-03-09 01:05:00,28.2,25.0,30.38,East,80,0.0,-999.0,88,-99.99,,,0.00,weatherlink.com 1.10,2013-03-09 06:05:00,
2013-03-09 01:20:00,28.9,26.0,30.38,East,80,0.0,-999.0,87,-99.99,,,0.00,weatherlink.com 1.10,2013-03-09 06:20:00,
2013-03-09 01:35:00,29.0,25.0,30.38,East,80,3.0,-999.0,85,-99.99,,,0.00,weatherlink.com 1.10,2013-03-09 06:35:00,
2013-03-09 01:50:00,27.4,23.0,30.38,East,80,1.0,-999.0,84,-99.99,,,0.00,weatherlink.com 1.10,2013-03-09 06:50:00,
2013-03-09 02:05:00,27.0,24.0,30.39,East,80,0.0,-999.0,88,-99.99,,,0.00,weatherlink.com 1.10,2013-03-09 07:05:00,
2013-03-09 02:20:00,26.6,24.0,30.38,East,80,2.0,-999.0,89,-99.99,,,0.00,weatherlink.com 1.10,2013-03-09 07:20:00,
2013-03-09 02:35:00,26.9,24.0,30.37,East,80,2.0,-999.0,89,-99.99,,,0.00,weatherlink.com 1.10,2013-03-09 07:35:00,
2013-03-09 02:50:00,26.3,23.0,30.37,East,80,2.0,-999.0,87,-99.99,,,0.00,weatherlink.com 1.10,2013-03-09 07:50:00,
2013-03-09 03:05:00,25.2,22.0,30.37,East,80,2.0,-999.0,89,-99.99,,,0.00,weatherlink.com 1.10,2013-03-09 08:05:00,
2013-03-09 03:20:00,26.2,24.0,30.36,East,82,4.0,-999.0,91,-99.99,,,0.00,weatherlink.com 1.10,2013-03-09 08:20:00,
2013-03-09 03:35:00,27.0,24.0,30.36,East,82,0.0,-999.0,89,-99.99,,,0.00,weatherlink.com 1.10,2013-03-09 08:35:00,
2013-03-09 03:50:00,25.8,23.0,30.37,East,82,3.0,-999.0,89,-99.99,,,0.00,weatherlink.com 1.10,2013-03-09 08:50:00,
2013-03-09 04:05:00,25.4,23.0,30.37,East,82,0.0,-999.0,89,-99.99,,,0.00,weatherlink.com 1.10,2013-03-09 09:05:00,
2013-03-09 04:20:00,25.0,23.0,30.38,East,82,0.0,-999.0,90,-99.99,,,0.00,weatherlink.com 1.10,2013-03-09 09:20:00,
2013-03-09 04:35:00,24.8,22.0,30.38,East,82,0.0,-999.0,90,-99.99,,,0.00,weatherlink.com 1.10,2013-03-09 09:35:00,
2013-03-09 04:50:00,24.6,22.0,30.38,East,82,0.0,-999.0,90,-99.99,,,0.00,weatherlink.com 1.10,2013-03-09 09:50:00,
2013-03-09 05:05:00,24.2,22.0,30.38,East,82,0.0,-999.0,90,-99.99,,,0.00,weatherlink.com 1.10,2013-03-09 10:05:00,
2013-03-09 05:20:00,22.7,20.0,30.39,East,82,1.0,-999.0,89,-99.99,,,0.00,weatherlink.com 1.10,2013-03-09 10:20:00,
2013-03-09 05:35:00,21.8,20.0,30.39,East,82,2.0,-999.0,91,-99.99,,,0.00,weatherlink.com 1.10,2013-03-09 10:35:00,
2013-03-09 05:50:00,22.2,20.0,30.39,East,82,2.0,-999.0,92,-99.99,,,0.00,weatherlink.com 1.10,2013-03-09 10:50:00,
2013-03-09 06:05:00,22.2,20.0,30.39,East,82,1.0,-999.0,92,-99.99,,,0.00,weatherlink.com 1.10,2013-03-09 11:05:00,
2013-03-09 06:20:00,21.3,19.0,30.39,East,82,1.0,-999.0,92,-99.99,,,0.00,weatherlink.com 1.10,2013-03-09 11:20:00,
2013-03-09 06:35:00,21.7,20.0,30.39,East,82,0.0,-999.0,93,-99.99,,,0.00,weatherlink.com 1.10,2013-03-09 11:35:00,
2013-03-09 06:50:00,21.8,20.0,30.40,East,82,2.0,-999.0,93,-99.99,,,0.00,weatherlink.com 1.10,2013-03-09 11:50:00,
2013-03-09 07:05:00,22.0,20.0,30.40,East,82,2.0,-999.0,93,-99.99,,,0.00,weatherlink.com 1.10,2013-03-09 12:05:00,
2013-03-09 07:20:00,21.6,20.0,30.40,East,82,0.0,-999.0,93,-99.99,,,0.00,weatherlink.com 1.10,2013-03-09 12:20:00,
2013-03-09 07:35:00,22.6,21.0,30.41,East,82,2.0,-999.0,93,-99.99,,,0.00,weatherlink.com 1.10,2013-03-09 12:35:00,
2013-03-09 07:50:00,22.9,21.0,30.41,East,82,0.0,-999.0,93,-99.99,,,0.00,weatherlink.com 1.10,2013-03-09 12:50:00,
2013-03-09 08:05:00,24.2,23.0,30.42,East,82,0.0,-999.0,93,-99.99,,,0.00,weatherlink.com 1.10,2013-03-09 13:05:00,
2013-03-09 08:21:00,25.7,24.0,30.43,East,82,2.0,-999.0,92,-99.99,,,0.00,weatherlink.com 1.10,2013-03-09 13:21:00,
2013-03-09 08:35:00,26.7,24.0,30.42,East,82,3.0,-999.0,90,-99.99,,,0.00,weatherlink.com 1.10,2013-03-09 13:35:00,
2013-03-09 08:50:00,28.1,25.0,30.43,East,82,2.0,-999.0,87,-99.99,,,0.00,weatherlink.com 1.10,2013-03-09 13:50:00,
2013-03-09 09:05:00,29.8,26.0,30.43,East,82,1.0,-999.0,86,-99.99,,,0.00,weatherlink.com 1.10,2013-03-09 14:05:00,
2013-03-09 09:20:00,32.4,27.0,30.43,East,82,3.0,-999.0,81,-99.99,,,0.00,weatherlink.com 1.10,2013-03-09 14:20:00,
2013-03-09 09:35:00,34.2,28.0,30.43,East,82,3.0,-999.0,78,-99.99,,,0.00,weatherlink.com 1.10,2013-03-09 14:35:00,
2013-03-09 09:50:00,34.8,28.0,30.43,East,82,3.0,-999.0,76,-99.99,,,0.00,weatherlink.com 1.10,2013-03-09 14:50:00,
2013-03-09 10:05:00,35.9,29.0,30.43,East,82,0.0,-999.0,75,-99.99,,,0.00,weatherlink.com 1.10,2013-03-09 15:05:00,
2013-03-09 10:20:00,37.7,29.0,30.41,East,82,1.0,-999.0,70,-99.99,,,0.00,weatherlink.com 1.10,2013-03-09 15:20:00,
2013-03-09 10:35:00,39.1,30.0,30.41,East,82,0.0,-999.0,69,-99.99,,,0.00,weatherlink.com 1.10,2013-03-09 15:35:00,
2013-03-09 10:50:00,40.0,29.0,30.41,East,82,2.0,-999.0,64,-99.99,,,0.00,weatherlink.com 1.10,2013-03-09 15:50:00,
2013-03-09 11:05:00,40.9,29.0,30.42,East,82,0.0,-999.0,62,-99.99,,,0.00,weatherlink.com 1.10,2013-03-09 16:05:00,
2013-03-09 11:20:00,44.2,29.0,30.41,East,82,0.0,-999.0,56,-99.99,,,0.00,weatherlink.com 1.10,2013-03-09 16:20:00,
2013-03-09 11:35:00,46.7,29.0,30.41,East,82,0.0,-999.0,51,-99.99,,,0.00,weatherlink.com 1.10,2013-03-09 16:35:00,
2013-03-09 11:50:00,46.5,28.0,30.41,East,82,3.0,-999.0,49,-99.99,,,0.00,weatherlink.com 1.10,2013-03-09 16:50:00,
2013-03-09 12:05:00,45.6,27.0,30.40,East,82,0.0,-999.0,49,-99.99,,,0.00,weatherlink.com 1.10,2013-03-09 17:05:00,
2013-03-09 12:20:00,46.3,27.0,30.39,East,82,0.0,-999.0,47,-99.99,,,0.00,weatherlink.com 1.10,2013-03-09 17:20:00,
2013-03-09 12:35:00,47.6,28.0,30.38,East,82,0.0,-999.0,47,-99.99,,,0.00,weatherlink.com 1.10,2013-03-09 17:35:00,
2013-03-09 12:50:00,48.9,27.0,30.38,East,82,0.0,-999.0,43,-99.99,,,0.00,weatherlink.com 1.10,2013-03-09 17:50:00,
2013-03-09 13:05:00,48.2,27.0,30.37,East,82,1.0,-999.0,44,-99.99,,,0.00,weatherlink.com 1.10,2013-03-09 18:05:00,
2013-03-09 13:20:00,48.0,26.0,30.37,East,82,3.0,-999.0,43,-99.99,,,0.00,weatherlink.com 1.10,2013-03-09 18:20:00,
2013-03-09 13:35:00,48.4,26.0,30.36,East,82,4.0,-999.0,42,-99.99,,,0.00,weatherlink.com 1.10,2013-03-09 18:35:00,
2013-03-09 13:50:00,48.6,25.0,30.35,East,82,2.0,-999.0,40,-99.99,,,0.00,weatherlink.com 1.10,2013-03-09 18:50:00,
2013-03-09 14:05:00,49.6,23.0,30.35,East,82,1.0,-999.0,35,-99.99,,,0.00,weatherlink.com 1.10,2013-03-09 19:05:00,
2013-03-09 14:20:00,49.5,26.0,30.34,East,82,3.0,-999.0,41,-99.99,,,0.00,weatherlink.com 1.10,2013-03-09 19:20:00,
2013-03-09 14:35:00,50.3,24.0,30.34,East,82,1.0,-999.0,36,-99.99,,,0.00,weatherlink.com 1.10,2013-03-09 19:35:00,
2013-03-09 14:50:00,51.7,23.0,30.34,East,82,0.0,-999.0,32,-99.99,,,0.00,weatherlink.com 1.10,2013-03-09 19:50:00,
2013-03-09 15:05:00,52.7,23.0,30.34,East,82,0.0,-999.0,32,-99.99,,,0.00,weatherlink.com 1.10,2013-03-09 20:05:00,
2013-03-09 15:20:00,54.2,23.0,30.33,East,82,0.0,-999.0,30,-99.99,,,0.00,weatherlink.com 1.10,2013-03-09 20:20:00,
2013-03-09 15:35:00,56.4,26.0,30.32,East,82,0.0,-999.0,31,-99.99,,,0.00,weatherlink.com 1.10,2013-03-09 20:35:00,
2013-03-09 15:50:00,55.3,24.0,30.32,East,82,0.0,-999.0,30,-99.99,,,0.00,weatherlink.com 1.10,2013-03-09 20:50:00,
2013-03-09 16:05:00,54.4,26.0,30.32,East,82,0.0,-999.0,34,-99.99,,,0.00,weatherlink.com 1.10,2013-03-09 21:05:00,
2013-03-09 16:20:00,54.1,25.0,30.32,East,82,2.0,-999.0,33,-99.99,,,0.00,weatherlink.com 1.10,2013-03-09 21:20:00,
2013-03-09 16:35:00,52.6,26.0,30.31,East,82,0.0,-999.0,36,-99.99,,,0.00,weatherlink.com 1.10,2013-03-09 21:35:00,
2013-03-09 16:50:00,51.8,26.0,30.31,East,82,3.0,-999.0,37,-99.99,,,0.00,weatherlink.com 1.10,2013-03-09 21:50:00,
2013-03-09 17:05:00,51.0,27.0,30.30,East,82,2.0,-999.0,39,-99.99,,,0.00,weatherlink.com 1.10,2013-03-09 22:05:00,
2013-03-09 17:20:00,50.6,26.0,30.31,East,82,1.0,-999.0,38,-99.99,,,0.00,weatherlink.com 1.10,2013-03-09 22:20:00,
2013-03-09 17:35:00,49.9,27.0,30.31,East,82,2.0,-999.0,41,-99.99,,,0.00,weatherlink.com 1.10,2013-03-09 22:35:00,
2013-03-09 17:50:00,49.8,26.0,30.31,East,82,3.0,-999.0,39,-99.99,,,0.00,weatherlink.com 1.10,2013-03-09 22:50:00,
2013-03-09 18:05:00,49.8,25.0,30.31,East,82,0.0,-999.0,38,-99.99,,,0.00,weatherlink.com 1.10,2013-03-09 23:05:00,
2013-03-09 18:20:00,48.4,27.0,30.31,East,82,2.0,-999.0,44,-99.99,,,0.00,weatherlink.com 1.10,2013-03-09 23:20:00,
2013-03-09 18:35:00,46.4,26.0,30.32,East,82,4.0,-999.0,45,-99.99,,,0.00,weatherlink.com 1.10,2013-03-09 23:35:00,
2013-03-09 18:50:00,46.0,27.0,30.31,East,82,4.0,-999.0,48,-99.99,,,0.00,weatherlink.com 1.10,2013-03-09 23:50:00,
2013-03-09 19:05:00,43.8,29.0,30.32,East,82,0.0,-999.0,56,-99.99,,,0.00,weatherlink.com 1.10,2013-03-10 00:05:00,
2013-03-09 19:20:00,40.1,29.0,30.32,East,82,2.0,-999.0,64,-99.99,,,0.00,weatherlink.com 1.10,2013-03-10 00:20:00,
2013-03-09 19:35:00,39.3,29.0,30.33,East,82,0.0,-999.0,67,-99.99,,,0.00,weatherlink.com 1.10,2013-03-10 00:35:00,
2013-03-09 19:50:00,38.0,30.0,30.33,East,82,1.0,-999.0,72,-99.99,,,0.00,weatherlink.com 1.10,2013-03-10 00:50:00,
2013-03-09 20:05:00,37.9,29.0,30.33,East,82,2.0,-999.0,69,-99.99,,,0.00,weatherlink.com 1.10,2013-03-10 01:05:00,
2013-03-09 20:20:00,37.5,27.0,30.33,East,82,2.0,-999.0,67,-99.99,,,0.00,weatherlink.com 1.10,2013-03-10 01:20:00,
2013-03-09 20:35:00,35.4,29.0,30.34,East,82,2.0,-999.0,77,-99.99,,,0.00,weatherlink.com 1.10,2013-03-10 01:35:00,
2013-03-09 20:50:00,34.7,29.0,30.34,East,82,0.0,-999.0,80,-99.99,,,0.00,weatherlink.com 1.10,2013-03-10 01:50:00,
2013-03-09 21:05:00,35.1,29.0,30.34,East,82,0.0,-999.0,77,-99.99,,,0.00,weatherlink.com 1.10,2013-03-10 02:05:00,
2013-03-09 21:20:00,34.4,29.0,30.34,East,82,0.0,-999.0,79,-99.99,,,0.00,weatherlink.com 1.10,2013-03-10 02:20:00,
2013-03-09 21:35:00,33.9,28.0,30.34,East,82,4.0,-999.0,79,-99.99,,,0.00,weatherlink.com 1.10,2013-03-10 02:35:00,
2013-03-09 21:50:00,36.4,27.0,30.34,East,82,0.0,-999.0,70,-99.99,,,0.00,weatherlink.com 1.10,2013-03-10 02:50:00,
2013-03-09 22:05:00,34.4,28.0,30.34,East,82,2.0,-999.0,76,-99.99,,,0.00,weatherlink.com 1.10,2013-03-10 03:05:00,
2013-03-09 22:20:00,33.5,28.0,30.35,East,82,0.0,-999.0,81,-99.99,,,0.00,weatherlink.com 1.10,2013-03-10 03:20:00,
2013-03-09 22:35:00,33.4,28.0,30.34,East,82,2.0,-999.0,80,-99.99,,,0.00,weatherlink.com 1.10,2013-03-10 03:35:00,
2013-03-09 22:50:00,32.8,28.0,30.34,East,82,2.0,-999.0,82,-99.99,,,0.00,weatherlink.com 1.10,2013-03-10 03:50:00,
2013-03-09 23:05:00,31.5,27.0,30.34,East,82,1.0,-999.0,84,-99.99,,,0.00,weatherlink.com 1.10,2013-03-10 04:05:00,
2013-03-09 23:20:00,31.1,27.0,30.35,East,82,2.0,-999.0,85,-99.99,,,0.00,weatherlink.com 1.10,2013-03-10 04:20:00,
2013-03-09 23:35:00,31.3,27.0,30.34,East,82,2.0,-999.0,83,-99.99,,,0.00,weatherlink.com 1.10,2013-03-10 04:35:00,
2013-03-09 23:50:00,30.6,27.0,30.34,East,82,0.0,-999.0,85,-99.99,,,0.00,weatherlink.com 1.10,2013-03-10 04:50:00,